Terminal Aerodrome Forecast
Issued by NWS Charleston, WV

Current Version | Previous Version | Graphics & Text | Print | Product List | Glossary On
Versions: 1 2 3 4 5 6 7 8 9 10 11 12 13 14 15 16 17 18 19 20 21 22 23 24 25 26 27
000
FTUS41 KRLX 140100 AAA
TAFBKW
TAF AMD
KBKW 140159Z 1402/1424 17010KT P6SM BKN250
     FM141300 18013G20KT P6SM BKN120
     FM141700 20016G26KT P6SM BKN040
     FM142000 19014G25KT P6SM VCTS BKN040CB=

USA.gov is the U.S. government's official web portal to all federal, state and local government web resources and services.